createdAt,value
2018-04-17T00:01:45.675Z,99.90
2018-04-17T00:04:13.306Z,99.90
2018-04-17T00:06:40.899Z,99.90
2018-04-17T00:09:08.509Z,99.90
2018-04-17T00:11:36.162Z,99.90
2018-04-17T00:14:04.437Z,99.90
2018-04-17T00:16:32.019Z,99.90
2018-04-17T00:18:59.639Z,99.90
2018-04-17T00:21:27.201Z,99.90
2018-04-17T00:23:55.582Z,99.90
2018-04-17T00:26:23.962Z,99.90
2018-04-17T00:28:52.475Z,99.90
2018-04-17T00:31:20.072Z,99.90
2018-04-17T00:33:47.672Z,99.90
2018-04-17T00:36:15.296Z,99.90
2018-04-17T00:38:42.999Z,99.90
2018-04-17T00:41:10.692Z,99.90
2018-04-17T00:43:38.340Z,99.90
2018-04-17T00:46:05.936Z,99.90
2018-04-17T00:48:33.643Z,99.90
2018-04-17T00:51:01.228Z,99.90
2018-04-17T00:53:40.625Z,99.90
2018-04-17T00:56:09.008Z,99.90
2018-04-17T00:58:37.722Z,99.90
2018-04-17T01:01:05.328Z,99.90
2018-04-17T01:03:32.990Z,99.90
2018-04-17T01:06:00.602Z,99.90
2018-04-17T01:08:28.247Z,99.90
2018-04-17T01:10:56.622Z,99.90
2018-04-17T01:13:25.037Z,99.90
2018-04-17T01:15:52.669Z,99.90
2018-04-17T01:18:20.300Z,99.90
2018-04-17T01:20:47.883Z,99.90
2018-04-17T01:23:15.515Z,99.90
2018-04-17T01:25:43.133Z,99.90
2018-04-17T01:28:10.808Z,99.90
2018-04-17T01:30:38.457Z,99.90
2018-04-17T01:33:06.092Z,99.90
2018-04-17T01:35:33.704Z,99.90
2018-04-17T01:38:01.334Z,99.90
2018-04-17T01:40:28.967Z,99.90
2018-04-17T01:42:56.696Z,99.90
2018-04-17T01:45:24.412Z,99.90
2018-04-17T01:47:52.108Z,99.90
2018-04-17T01:50:19.784Z,99.90
2018-04-17T01:52:47.425Z,99.90
2018-04-17T01:55:15.113Z,99.90
2018-04-17T01:57:42.712Z,99.90
2018-04-17T02:00:11.119Z,99.90
2018-04-17T02:02:38.776Z,99.90
2018-04-17T02:05:07.405Z,99.90
2018-04-17T02:07:35.098Z,99.90
2018-04-17T02:10:02.840Z,99.90
2018-04-17T02:12:30.421Z,99.90
2018-04-17T02:14:58.134Z,99.90
2018-04-17T02:17:25.874Z,99.90
2018-04-17T02:19:53.901Z,99.90
2018-04-17T02:22:21.540Z,99.90
2018-04-17T02:24:49.207Z,99.90
2018-04-17T02:27:16.810Z,99.90
2018-04-17T02:29:44.434Z,99.90
2018-04-17T02:32:12.074Z,99.90
2018-04-17T02:34:39.686Z,99.90
2018-04-17T02:37:07.315Z,99.90
2018-04-17T02:39:35.002Z,99.90
2018-04-17T02:42:02.631Z,99.90
2018-04-17T02:44:30.224Z,99.90
2018-04-17T02:46:57.908Z,99.90
2018-04-17T02:49:26.260Z,99.90
2018-04-17T02:51:54.943Z,99.90
2018-04-17T02:54:22.610Z,99.90
2018-04-17T02:56:50.230Z,99.90
2018-04-17T02:59:17.870Z,99.90
2018-04-17T03:01:45.458Z,99.90
2018-04-17T03:04:13.582Z,99.90
2018-04-17T03:06:41.243Z,99.90
2018-04-17T03:09:08.877Z,99.90
2018-04-17T03:11:36.548Z,99.90
2018-04-17T03:14:04.208Z,99.90
2018-04-17T03:16:31.862Z,99.90
2018-04-17T03:18:59.535Z,99.90
2018-04-17T03:21:27.162Z,99.90
2018-04-17T03:23:54.789Z,99.90
2018-04-17T03:26:23.153Z,99.90
2018-04-17T03:28:50.970Z,99.90
2018-04-17T03:31:20.318Z,99.90
2018-04-17T03:33:47.886Z,99.90
2018-04-17T03:36:15.568Z,99.90
2018-04-17T03:38:43.214Z,99.90
2018-04-17T03:41:11.641Z,99.90
2018-04-17T03:43:39.273Z,99.90
2018-04-17T03:46:06.903Z,99.90
2018-04-17T03:48:34.519Z,99.90
2018-04-17T03:51:02.176Z,99.90
2018-04-17T03:53:30.264Z,99.90
2018-04-17T03:55:58.825Z,99.90
2018-04-17T03:58:26.407Z,99.90
2018-04-17T04:00:55.003Z,99.90
2018-04-17T04:03:22.601Z,99.90
2018-04-17T04:05:50.435Z,99.90
2018-04-17T04:08:18.060Z,99.90
2018-04-17T04:10:46.534Z,99.90
2018-04-17T04:13:14.580Z,99.90
2018-04-17T04:15:43.041Z,99.90
2018-04-17T04:18:22.660Z,99.90
2018-04-17T04:24:03.030Z,99.90
2018-04-17T04:26:31.388Z,99.90
2018-04-17T04:28:58.996Z,99.90
2018-04-17T04:31:26.643Z,99.90
2018-04-17T04:33:54.326Z,99.90
2018-04-17T04:36:22.028Z,99.90
2018-04-17T04:38:50.392Z,99.90
2018-04-17T04:41:18.024Z,99.90
2018-04-17T04:43:45.634Z,99.90
2018-04-17T04:46:14.159Z,99.90
2018-04-17T04:48:41.826Z,99.90
2018-04-17T04:51:09.745Z,99.90
2018-04-17T04:53:38.160Z,99.90
2018-04-17T04:56:05.856Z,99.90
2018-04-17T04:58:33.491Z,99.90
2018-04-17T05:01:01.183Z,99.90
2018-04-17T05:03:28.822Z,99.90
2018-04-17T05:05:56.475Z,99.90
2018-04-17T05:08:24.135Z,99.90
2018-04-17T05:10:51.772Z,99.90
2018-04-17T05:13:19.477Z,99.90
2018-04-17T05:15:47.565Z,99.90
2018-04-17T05:18:15.233Z,99.90
2018-04-17T05:20:43.711Z,99.90
2018-04-17T05:23:11.436Z,99.90
2018-04-17T05:25:39.109Z,99.90
2018-04-17T05:28:06.748Z,99.90
2018-04-17T05:30:34.416Z,99.90
2018-04-17T05:33:02.490Z,99.90
2018-04-17T05:35:30.133Z,99.90
2018-04-17T05:37:57.774Z,99.90
2018-04-17T05:40:25.430Z,99.90
2018-04-17T05:42:53.138Z,99.90
2018-04-17T05:45:20.903Z,99.90
2018-04-17T05:47:48.903Z,99.90
2018-04-17T05:50:17.303Z,99.90
2018-04-17T05:52:44.884Z,99.90
2018-04-17T05:55:12.572Z,99.90
2018-04-17T05:57:40.974Z,99.90
2018-04-17T06:00:08.593Z,99.90
2018-04-17T06:02:36.573Z,99.90
2018-04-17T06:05:04.292Z,99.90
2018-04-17T06:07:32.785Z,99.90
2018-04-17T06:10:01.435Z,99.90
2018-04-17T06:12:29.121Z,99.90
2018-04-17T06:14:57.608Z,99.90
2018-04-17T06:17:25.995Z,99.90
2018-04-17T06:19:53.633Z,99.90
2018-04-17T06:22:22.035Z,99.90
2018-04-17T06:24:49.712Z,99.90
2018-04-17T06:27:18.156Z,99.90
2018-04-17T06:29:45.839Z,99.90
2018-04-17T06:32:13.477Z,99.90
2018-04-17T06:34:41.390Z,99.90
2018-04-17T06:37:09.289Z,99.90
2018-04-17T06:39:36.963Z,99.90
2018-04-17T06:42:04.817Z,99.90
2018-04-17T06:44:32.423Z,99.90
2018-04-17T06:47:00.168Z,99.90
2018-04-17T06:49:27.888Z,99.90
2018-04-17T06:51:55.534Z,99.90
2018-04-17T06:54:23.942Z,99.90
2018-04-17T06:56:51.541Z,99.90
2018-04-17T06:59:19.927Z,99.90
2018-04-17T07:01:49.422Z,99.90
2018-04-17T07:04:17.441Z,99.90
2018-04-17T07:06:45.137Z,99.90
2018-04-17T07:09:12.811Z,99.90
2018-04-17T07:11:40.476Z,99.90
2018-04-17T07:14:08.129Z,99.90
2018-04-17T07:16:35.764Z,99.90
2018-04-17T07:19:03.365Z,99.90
2018-04-17T07:21:31.021Z,99.90
2018-04-17T07:23:58.649Z,99.90
2018-04-17T07:26:26.332Z,99.90
2018-04-17T07:28:53.950Z,99.90
2018-04-17T07:31:21.750Z,99.90
2018-04-17T07:33:49.392Z,99.90
2018-04-17T07:36:17.081Z,99.90
2018-04-17T07:38:44.735Z,99.90
2018-04-17T07:41:12.377Z,99.90
2018-04-17T07:43:39.986Z,99.90
2018-04-17T07:46:07.835Z,99.90
2018-04-17T07:48:47.600Z,99.90
2018-04-17T07:51:15.230Z,99.90
2018-04-17T07:53:43.066Z,99.90
2018-04-17T07:56:10.651Z,99.90
2018-04-17T07:58:38.738Z,99.90
2018-04-17T08:01:06.384Z,99.90
2018-04-17T08:03:34.057Z,99.90
2018-04-17T08:06:01.687Z,99.90
2018-04-17T08:08:30.097Z,99.90
2018-04-17T08:10:57.742Z,99.90
2018-04-17T08:13:25.346Z,99.90
2018-04-17T08:15:52.983Z,99.90
2018-04-17T08:18:20.665Z,99.90
2018-04-17T08:20:48.279Z,99.90
2018-04-17T08:23:16.658Z,99.90
2018-04-17T08:25:45.163Z,99.90
2018-04-17T08:28:13.378Z,99.90
2018-04-17T08:30:41.021Z,99.90
2018-04-17T08:33:08.666Z,99.90
2018-04-17T08:35:37.273Z,99.90
2018-04-17T08:38:04.953Z,99.90
2018-04-17T08:40:32.705Z,99.90
2018-04-17T08:43:00.380Z,99.90
2018-04-17T08:45:28.967Z,99.90
2018-04-17T08:47:57.342Z,99.90
2018-04-17T08:50:24.917Z,99.90
2018-04-17T08:52:53.285Z,99.90
2018-04-17T08:55:20.884Z,99.90
2018-04-17T08:57:48.512Z,99.90
2018-04-17T09:00:16.189Z,99.90
2018-04-17T09:02:43.768Z,99.90
2018-04-17T09:05:11.388Z,99.90
2018-04-17T09:07:39.090Z,99.90
2018-04-17T09:10:06.822Z,99.90
2018-04-17T09:12:34.419Z,99.90
2018-04-17T09:15:02.049Z,99.90
2018-04-17T09:17:30.694Z,99.90
2018-04-17T09:19:58.316Z,99.90
2018-04-17T09:22:26.149Z,99.90
2018-04-17T09:24:54.547Z,99.90
2018-04-17T09:27:22.980Z,99.90
2018-04-17T09:29:50.836Z,99.90
2018-04-17T09:32:18.470Z,99.90
2018-04-17T09:34:46.090Z,99.90
2018-04-17T09:37:13.712Z,99.90
2018-04-17T09:39:41.355Z,99.90
2018-04-17T09:42:09.727Z,99.90
2018-04-17T09:44:38.120Z,99.90
2018-04-17T09:47:05.753Z,99.90
2018-04-17T09:49:33.491Z,99.90
2018-04-17T09:52:01.154Z,99.90
2018-04-17T09:54:28.757Z,99.90
2018-04-17T09:56:57.176Z,99.90
2018-04-17T09:59:24.790Z,99.90
2018-04-17T10:01:53.230Z,99.90
2018-04-17T10:04:20.802Z,99.90
2018-04-17T10:06:48.424Z,99.90
2018-04-17T10:09:16.074Z,99.90
2018-04-17T10:11:44.507Z,99.90
2018-04-17T10:14:12.245Z,99.90
2018-04-17T10:16:40.102Z,99.90
2018-04-17T10:19:07.687Z,99.90
2018-04-17T10:21:35.475Z,99.90
2018-04-17T10:24:03.112Z,99.90
2018-04-17T10:26:30.701Z,99.90
2018-04-17T10:28:58.373Z,99.90
2018-04-17T10:31:26.072Z,99.90
2018-04-17T10:33:53.685Z,99.90
2018-04-17T10:36:21.290Z,99.90
2018-04-17T10:38:49.915Z,99.90
2018-04-17T10:41:17.545Z,99.90
2018-04-17T10:43:45.142Z,99.90
2018-04-17T10:46:12.781Z,99.90
2018-04-17T10:48:40.406Z,99.90
2018-04-17T10:51:08.063Z,99.90
2018-04-17T10:53:35.693Z,99.90
2018-04-17T10:56:04.141Z,99.90
2018-04-17T10:58:31.800Z,99.90
2018-04-17T11:00:59.467Z,99.90
2018-04-17T11:03:28.069Z,99.90
2018-04-17T11:05:55.848Z,99.90
2018-04-17T11:08:23.473Z,99.90
2018-04-17T11:10:51.165Z,99.90
2018-04-17T11:13:18.761Z,99.90
2018-04-17T11:15:46.419Z,99.90
2018-04-17T11:18:14.050Z,99.90
2018-04-17T11:20:41.723Z,99.90
2018-04-17T11:23:09.413Z,99.70
2018-04-17T11:25:37.871Z,99.10
2018-04-17T11:28:05.596Z,99.10
2018-04-17T11:30:33.251Z,99.30
2018-04-17T11:33:01.337Z,99.50
2018-04-17T11:35:29.005Z,99.50
2018-04-17T11:37:56.647Z,99.80
2018-04-17T11:40:24.344Z,99.60
2018-04-17T11:42:52.075Z,99.60
2018-04-17T11:45:19.808Z,99.90
2018-04-17T11:47:48.210Z,99.90
2018-04-17T11:50:16.086Z,99.90
2018-04-17T11:52:43.712Z,99.90
2018-04-17T11:55:11.372Z,99.80
2018-04-17T11:57:39.032Z,99.90
2018-04-17T12:00:07.417Z,99.90
2018-04-17T12:02:35.824Z,99.60
2018-04-17T12:05:03.396Z,99.50
2018-04-17T12:07:31.011Z,98.90
2018-04-17T12:09:58.705Z,99.30
2018-04-17T12:12:26.341Z,98.70
2018-04-17T12:14:54.673Z,98.40
2018-04-17T12:17:22.307Z,98.40
2018-04-17T12:19:49.936Z,99.00
2018-04-17T12:22:18.309Z,99.00
2018-04-17T12:24:46.722Z,98.60
2018-04-17T12:27:14.339Z,98.70
2018-04-17T12:29:42.863Z,97.80
2018-04-17T12:32:10.577Z,97.80
2018-04-17T12:34:38.202Z,97.70
2018-04-17T12:37:05.840Z,97.20
2018-04-17T12:39:34.195Z,97.00
2018-04-17T12:42:01.863Z,97.00
2018-04-17T12:44:30.205Z,97.40
2018-04-17T12:46:57.839Z,97.40
2018-04-17T12:49:25.476Z,97.60
2018-04-17T12:51:53.881Z,97.90
2018-04-17T12:54:22.456Z,97.90
2018-04-17T12:56:50.100Z,97.10
2018-04-17T12:59:18.558Z,97.10
2018-04-17T13:01:46.157Z,97.10
2018-04-17T13:04:13.903Z,96.70
2018-04-17T13:06:41.554Z,96.40
2018-04-17T13:09:10.031Z,95.60
2018-04-17T13:11:37.632Z,95.50
2018-04-17T13:14:05.795Z,95.80
2018-04-17T13:16:33.467Z,96.20
2018-04-17T13:19:01.048Z,96.20
2018-04-17T13:21:28.795Z,96.00
2018-04-17T13:23:56.447Z,95.90
2018-04-17T13:26:24.159Z,95.60
2018-04-17T13:28:51.819Z,95.50
2018-04-17T13:31:19.461Z,95.30
2018-04-17T13:33:47.039Z,95.00
2018-04-17T13:36:14.738Z,94.40
2018-04-17T13:38:43.169Z,93.70
2018-04-17T13:41:10.786Z,93.70
2018-04-17T13:43:39.157Z,93.80
2018-04-17T13:46:08.352Z,94.30
2018-04-17T13:48:36.753Z,94.10
2018-04-17T13:51:05.254Z,94.50
2018-04-17T13:53:32.903Z,94.50
2018-04-17T13:56:00.540Z,93.90
2018-04-17T13:58:28.162Z,93.50
2018-04-17T14:00:55.838Z,93.20
2018-04-17T14:03:23.478Z,93.20
2018-04-17T14:05:51.145Z,93.20
2018-04-17T14:08:19.552Z,92.50
2018-04-17T14:10:47.185Z,92.50
2018-04-17T14:13:14.828Z,92.40
2018-04-17T14:15:42.455Z,92.40
2018-04-17T14:18:10.177Z,92.50
2018-04-17T14:20:37.846Z,92.40
2018-04-17T14:23:05.610Z,92.20
2018-04-17T14:25:33.248Z,92.60
2018-04-17T14:28:01.013Z,92.90
2018-04-17T14:30:28.686Z,92.90
2018-04-17T14:32:56.509Z,93.00
2018-04-17T14:35:25.017Z,92.40
2018-04-17T14:37:52.590Z,92.40
2018-04-17T14:40:20.260Z,92.40
2018-04-17T14:42:47.833Z,92.60
2018-04-17T14:45:15.498Z,92.60
2018-04-17T14:47:43.340Z,92.40
2018-04-17T14:50:10.974Z,92.70
2018-04-17T14:52:38.606Z,92.90
2018-04-17T14:55:06.292Z,92.70
2018-04-17T14:57:34.711Z,92.30
2018-04-17T15:00:02.472Z,92.30
2018-04-17T15:02:30.235Z,92.50
2018-04-17T15:04:57.856Z,92.20
2018-04-17T15:07:26.287Z,92.30
2018-04-17T15:09:53.934Z,92.30
2018-04-17T15:12:21.595Z,92.30
2018-04-17T15:14:49.196Z,92.00
2018-04-17T15:17:16.816Z,92.10
2018-04-17T15:19:44.487Z,91.90
2018-04-17T15:22:12.177Z,92.00
2018-04-17T15:24:39.888Z,91.90
2018-04-17T15:27:07.535Z,92.10
2018-04-17T15:29:35.931Z,91.90
2018-04-17T15:32:03.540Z,91.90
2018-04-17T15:34:32.085Z,91.90
2018-04-17T15:36:59.744Z,91.90
2018-04-17T15:39:27.362Z,92.60
2018-04-17T15:41:55.753Z,91.90
2018-04-17T15:44:25.316Z,91.90
2018-04-17T15:46:53.887Z,92.20
2018-04-17T15:49:21.559Z,92.10
2018-04-17T15:51:49.253Z,91.70
2018-04-17T15:54:16.922Z,91.80
2018-04-17T15:56:45.297Z,91.40
2018-04-17T15:59:13.030Z,91.30
2018-04-17T16:01:40.782Z,91.40
2018-04-17T16:04:08.424Z,91.00
2018-04-17T16:06:36.112Z,91.00
2018-04-17T16:09:03.709Z,91.00
2018-04-17T16:11:32.129Z,91.10
2018-04-17T16:13:59.772Z,91.10
2018-04-17T16:16:27.396Z,91.00
2018-04-17T16:18:55.057Z,90.90
2018-04-17T16:21:22.700Z,91.10
2018-04-17T16:23:51.065Z,91.00
2018-04-17T16:26:18.700Z,90.70
2018-04-17T16:28:46.388Z,90.90
2018-04-17T16:31:14.052Z,91.00
2018-04-17T16:33:42.562Z,91.20
2018-04-17T16:36:10.484Z,91.40
2018-04-17T16:38:38.091Z,91.20
2018-04-17T16:41:05.923Z,91.90
2018-04-17T16:43:34.151Z,91.60
2018-04-17T16:46:02.523Z,91.30
2018-04-17T16:48:30.115Z,91.30
2018-04-17T16:50:58.497Z,91.80
2018-04-17T16:53:26.891Z,92.10
2018-04-17T16:55:54.487Z,92.00
2018-04-17T16:58:22.098Z,91.90
2018-04-17T17:00:49.916Z,91.60
2018-04-17T17:03:17.484Z,91.30
2018-04-17T17:05:45.272Z,91.40
2018-04-17T17:08:13.614Z,91.30
2018-04-17T17:10:41.295Z,91.30
2018-04-17T17:13:08.846Z,91.40
2018-04-17T17:15:36.509Z,91.70
2018-04-17T17:18:05.051Z,91.30
2018-04-17T17:20:32.665Z,91.30
2018-04-17T17:23:00.566Z,91.50
2018-04-17T17:25:28.211Z,91.30
2018-04-17T17:27:55.943Z,91.50
2018-04-17T17:30:23.592Z,91.70
2018-04-17T17:32:51.382Z,91.90
2018-04-17T17:35:19.127Z,91.70
2018-04-17T17:37:46.928Z,91.80
2018-04-17T17:40:14.542Z,91.20
2018-04-17T17:42:43.065Z,91.10
2018-04-17T17:45:10.772Z,91.10
2018-04-17T17:47:38.421Z,90.50
2018-04-17T17:50:06.100Z,90.60
2018-04-17T17:52:34.447Z,90.20
2018-04-17T17:55:03.875Z,90.60
2018-04-17T17:57:31.586Z,90.50
2018-04-17T18:00:00.091Z,90.70
2018-04-17T18:02:28.474Z,91.10
2018-04-17T18:04:57.703Z,91.60
2018-04-17T18:07:26.207Z,91.60
2018-04-17T18:09:53.814Z,91.80
2018-04-17T18:12:21.595Z,91.90
2018-04-17T18:14:49.927Z,92.80
2018-04-17T18:17:17.666Z,92.80
2018-04-17T18:19:45.307Z,93.30
2018-04-17T18:22:13.701Z,93.30
2018-04-17T18:24:41.571Z,94.50
2018-04-17T18:27:09.230Z,95.20
2018-04-17T18:29:36.827Z,95.40
2018-04-17T18:32:05.330Z,95.30
2018-04-17T18:34:33.727Z,96.30
2018-04-17T18:37:01.452Z,96.30
2018-04-17T18:39:29.863Z,96.60
2018-04-17T18:41:58.239Z,97.60
2018-04-17T18:44:26.774Z,97.70
2018-04-17T18:46:55.252Z,98.30
2018-04-17T18:49:23.281Z,98.30
2018-04-17T18:51:50.941Z,98.60
2018-04-17T18:54:19.653Z,99.00
2018-04-17T18:56:47.277Z,99.30
2018-04-17T18:59:15.781Z,99.70
2018-04-17T19:01:43.466Z,99.70
2018-04-17T19:04:11.094Z,99.90
2018-04-17T19:06:38.716Z,99.90
2018-04-17T19:09:06.439Z,99.90
2018-04-17T19:11:34.051Z,99.90
2018-04-17T19:14:02.197Z,99.90
2018-04-17T19:16:30.158Z,99.90
2018-04-17T19:18:57.766Z,99.90
2018-04-17T19:21:25.468Z,99.90
2018-04-17T19:23:53.126Z,99.90
2018-04-17T19:26:20.974Z,99.90
2018-04-17T19:28:48.628Z,99.90
2018-04-17T19:31:16.293Z,99.90
2018-04-17T19:33:44.889Z,99.90
2018-04-17T19:36:12.542Z,99.90
2018-04-17T19:38:40.180Z,99.90
2018-04-17T19:41:08.551Z,99.90
2018-04-17T19:43:36.165Z,99.90
2018-04-17T19:46:03.829Z,99.90
2018-04-17T19:48:31.483Z,99.90
2018-04-17T19:50:59.183Z,99.90
2018-04-17T19:53:26.812Z,99.90
2018-04-17T19:55:54.452Z,99.90
2018-04-17T19:58:22.819Z,99.90
2018-04-17T20:00:51.228Z,99.90
2018-04-17T20:03:18.845Z,99.90
2018-04-17T20:05:46.498Z,99.90
2018-04-17T20:08:14.791Z,99.90
2018-04-17T20:10:42.487Z,99.90
2018-04-17T20:13:10.197Z,99.90
2018-04-17T20:15:38.424Z,99.90
2018-04-17T20:18:07.043Z,99.90
2018-04-17T20:20:34.737Z,99.90
2018-04-17T20:23:02.296Z,99.90
2018-04-17T20:25:29.957Z,99.90
2018-04-17T20:27:57.605Z,99.90
2018-04-17T20:30:25.319Z,99.90
2018-04-17T20:32:53.010Z,99.90
2018-04-17T20:35:20.638Z,99.90
2018-04-17T20:37:48.245Z,99.90
2018-04-17T20:40:15.906Z,99.90
2018-04-17T20:42:43.571Z,99.90
2018-04-17T20:45:11.289Z,99.90
2018-04-17T20:47:38.903Z,99.90
2018-04-17T20:50:06.546Z,99.90
2018-04-17T20:52:34.175Z,99.90
2018-04-17T20:55:01.776Z,99.90
2018-04-17T20:57:30.197Z,99.90
2018-04-17T20:59:57.800Z,99.90
2018-04-17T21:02:25.874Z,99.90
2018-04-17T21:04:55.738Z,99.90
2018-04-17T21:07:24.470Z,99.90
2018-04-17T21:09:52.065Z,99.90
2018-04-17T21:12:20.517Z,99.90
2018-04-17T21:14:48.141Z,99.90
2018-04-17T21:17:15.801Z,99.90
2018-04-17T21:19:44.155Z,99.90
2018-04-17T21:22:11.789Z,99.90
2018-04-17T21:24:39.678Z,99.90
2018-04-17T21:27:07.289Z,99.90
2018-04-17T21:29:34.889Z,99.90
2018-04-17T21:32:02.533Z,99.90
2018-04-17T21:34:30.260Z,99.90
2018-04-17T21:36:57.950Z,99.90
2018-04-17T21:39:25.599Z,99.90
2018-04-17T21:41:53.172Z,99.90
2018-04-17T21:44:20.768Z,99.90
2018-04-17T21:46:48.460Z,99.90
2018-04-17T21:49:16.851Z,99.90
2018-04-17T21:51:45.218Z,99.90
2018-04-17T21:54:13.580Z,99.90
2018-04-17T21:56:42.115Z,99.90
2018-04-17T21:59:09.822Z,99.90
2018-04-17T22:01:37.441Z,99.90
2018-04-17T22:04:05.063Z,99.90
2018-04-17T22:06:33.791Z,99.90
2018-04-17T22:09:01.491Z,99.90
2018-04-17T22:11:29.115Z,99.90
2018-04-17T22:13:56.754Z,99.90
2018-04-17T22:16:24.393Z,99.90
2018-04-17T22:18:52.746Z,99.90
2018-04-17T22:21:20.439Z,99.90
2018-04-17T22:23:48.013Z,99.90
2018-04-17T22:26:15.631Z,99.90
2018-04-17T22:28:43.331Z,99.90
2018-04-17T22:31:10.950Z,99.90
2018-04-17T22:33:38.568Z,99.90
2018-04-17T22:36:06.224Z,99.90
2018-04-17T22:38:34.460Z,99.90
2018-04-17T22:41:02.109Z,99.90
2018-04-17T22:43:29.767Z,99.90
2018-04-17T22:45:57.391Z,99.90
2018-04-17T22:48:24.989Z,99.90
2018-04-17T22:50:52.615Z,99.90
2018-04-17T22:53:20.237Z,99.90
2018-04-17T22:55:48.632Z,99.90
2018-04-17T22:58:17.022Z,99.90
2018-04-17T23:00:45.382Z,99.90
2018-04-17T23:03:13.808Z,99.90
2018-04-17T23:05:41.403Z,99.90
2018-04-17T23:08:09.674Z,99.90
2018-04-17T23:10:37.249Z,99.90
2018-04-17T23:13:04.853Z,99.90
2018-04-17T23:15:33.697Z,99.90
2018-04-17T23:18:02.032Z,99.90
2018-04-17T23:20:29.643Z,99.90
2018-04-17T23:22:57.297Z,99.90
2018-04-17T23:25:24.929Z,99.90
2018-04-17T23:27:52.561Z,99.90
2018-04-17T23:30:20.679Z,99.90
2018-04-17T23:32:48.263Z,99.90
2018-04-17T23:35:16.440Z,99.90
2018-04-17T23:37:44.810Z,99.90
2018-04-17T23:40:12.479Z,99.90
2018-04-17T23:42:40.852Z,99.90
2018-04-17T23:45:08.504Z,99.90
2018-04-17T23:47:36.099Z,99.90
2018-04-17T23:50:04.482Z,99.90
2018-04-17T23:52:32.925Z,99.90
2018-04-17T23:55:00.546Z,99.90
2018-04-17T23:57:28.411Z,99.90
2018-04-17T23:59:55.987Z,99.90
